createdAt,value
2023-01-02T00:01:36.244Z,39.00
2023-01-02T00:04:04.585Z,35.00
2023-01-02T00:06:37.248Z,37.75
2023-01-02T00:09:06.941Z,32.50
2023-01-02T00:11:35.437Z,34.00
2023-01-02T00:14:03.760Z,40.50
2023-01-02T00:16:32.096Z,36.25
2023-01-02T00:19:00.493Z,36.25
2023-01-02T00:21:28.785Z,33.75
2023-01-02T00:23:57.127Z,39.75
2023-01-02T00:26:25.441Z,36.50
2023-01-02T00:28:53.740Z,36.75
2023-01-02T00:31:22.132Z,42.50
2023-01-02T00:33:50.450Z,40.50
2023-01-02T00:36:18.825Z,33.25
2023-01-02T00:38:47.116Z,34.25
2023-01-02T00:41:15.415Z,39.00
2023-01-02T00:43:44.520Z,38.25
2023-01-02T00:46:12.940Z,39.50
2023-01-02T00:48:41.686Z,40.50
2023-01-02T00:51:10.447Z,39.50
2023-01-02T00:53:39.208Z,41.50
2023-01-02T00:56:07.886Z,38.00
2023-01-02T00:58:36.314Z,36.75
2023-01-02T01:01:05.306Z,34.00
2023-01-02T01:03:33.638Z,49.50
2023-01-02T01:06:08.442Z,42.25
2023-01-02T01:08:38.471Z,35.50
2023-01-02T01:11:11.831Z,41.00
2023-01-02T01:13:40.569Z,31.25
2023-01-02T01:16:15.136Z,33.00
2023-01-02T01:18:43.885Z,40.00
2023-01-02T01:21:20.759Z,35.75
2023-01-02T01:23:56.782Z,31.00
2023-01-02T01:26:25.523Z,39.00
2023-01-02T01:28:55.495Z,39.00
2023-01-02T01:31:24.621Z,38.00
2023-01-02T01:33:53.026Z,36.75
2023-01-02T01:36:24.852Z,33.75
2023-01-02T01:38:53.317Z,33.25
2023-01-02T01:41:24.638Z,28.50
2023-01-02T01:43:59.032Z,38.00
2023-01-02T01:46:36.744Z,35.50
2023-01-02T01:49:14.077Z,33.25
2023-01-02T01:51:53.991Z,37.75
2023-01-02T01:54:31.737Z,26.00
2023-01-02T01:57:05.871Z,33.75
2023-01-02T01:59:36.393Z,33.50
2023-01-02T02:02:04.911Z,31.50
2023-01-02T02:04:33.580Z,35.75
2023-01-02T02:07:02.341Z,40.50
2023-01-02T02:09:45.691Z,33.00
2023-01-02T02:12:15.429Z,31.00
2023-01-02T02:14:43.723Z,36.75
2023-01-02T02:17:30.603Z,32.75
2023-01-02T02:20:25.732Z,36.00
2023-01-02T02:23:33.372Z,30.75
2023-01-02T02:26:13.731Z,38.50
2023-01-02T02:29:12.576Z,30.50
2023-01-02T02:31:52.483Z,33.75
2023-01-02T02:34:35.889Z,31.75
2023-01-02T02:37:30.967Z,32.50
2023-01-02T02:40:04.951Z,31.25
2023-01-02T02:43:10.465Z,31.25
2023-01-02T02:45:50.152Z,31.00
2023-01-02T02:48:27.779Z,29.00
2023-01-02T02:51:14.426Z,30.25
2023-01-02T02:53:55.824Z,34.50
2023-01-02T02:56:28.629Z,28.00
2023-01-02T02:59:00.997Z,24.25
2023-01-02T03:01:31.383Z,27.25
2023-01-02T03:04:00.232Z,22.50
2023-01-02T03:06:37.393Z,22.00
2023-01-02T03:09:28.248Z,23.75
2023-01-02T03:12:15.911Z,24.25
2023-01-02T03:15:05.714Z,22.25
2023-01-02T03:18:15.095Z,28.75
2023-01-02T03:20:48.601Z,27.25
2023-01-02T03:23:25.192Z,26.50
2023-01-02T03:25:54.651Z,22.00
2023-01-02T03:28:27.446Z,26.75
2023-01-02T03:31:01.065Z,26.25
2023-01-02T03:33:34.219Z,27.00
2023-01-02T03:36:07.571Z,28.25
2023-01-02T03:38:42.579Z,30.25
2023-01-02T03:41:22.554Z,26.50
2023-01-02T03:43:57.000Z,27.75
2023-01-02T03:46:36.453Z,24.75
2023-01-02T03:49:35.848Z,23.75
2023-01-02T03:52:04.245Z,26.50
2023-01-02T03:54:33.092Z,28.00
2023-01-02T03:57:15.649Z,27.75
2023-01-02T04:00:12.074Z,27.00
2023-01-02T04:02:46.259Z,23.50
2023-01-02T04:05:47.184Z,29.00
2023-01-02T04:08:25.344Z,25.25
2023-01-02T04:10:58.932Z,29.00
2023-01-02T04:13:47.628Z,26.75
2023-01-02T04:16:22.244Z,28.00
2023-01-02T04:19:02.677Z,27.25
2023-01-02T04:21:35.425Z,27.25
2023-01-02T04:24:11.557Z,23.50
2023-01-02T04:27:11.956Z,27.75
2023-01-02T04:29:40.822Z,24.50
2023-01-02T04:32:24.257Z,29.50
2023-01-02T04:34:54.435Z,30.75
2023-01-02T04:37:35.495Z,28.50
2023-01-02T04:40:28.963Z,27.00
2023-01-02T04:42:57.537Z,25.75
2023-01-02T04:45:25.926Z,29.25
2023-01-02T04:47:54.239Z,26.50
2023-01-02T04:50:22.917Z,23.50
2023-01-02T04:52:51.260Z,28.50
2023-01-02T04:55:19.552Z,24.50
2023-01-02T04:57:48.117Z,27.00
2023-01-02T05:00:16.809Z,31.00
2023-01-02T05:02:45.209Z,28.75
2023-01-02T05:05:13.649Z,30.25
2023-01-02T05:07:42.023Z,28.50
2023-01-02T05:10:10.979Z,27.50
2023-01-02T05:12:40.612Z,27.00
2023-01-02T05:15:11.588Z,23.75
2023-01-02T05:17:42.407Z,21.50
2023-01-02T05:20:15.469Z,29.00
2023-01-02T05:23:03.623Z,24.00
2023-01-02T05:25:36.803Z,23.00
2023-01-02T05:28:05.814Z,23.50
2023-01-02T05:30:34.260Z,30.75
2023-01-02T05:33:02.692Z,23.75
2023-01-02T05:35:33.349Z,23.25
2023-01-02T05:38:02.675Z,28.25
2023-01-02T05:40:31.777Z,28.00
2023-01-02T05:43:00.625Z,25.75
2023-01-02T05:45:29.434Z,26.75
2023-01-02T05:47:57.785Z,26.50
2023-01-02T05:50:26.107Z,19.75
2023-01-02T05:52:54.435Z,23.50
2023-01-02T05:55:22.865Z,25.50
2023-01-02T05:57:55.188Z,29.25
2023-01-02T06:00:23.572Z,26.50
2023-01-02T06:02:52.218Z,25.25
2023-01-02T06:05:20.571Z,24.25
2023-01-02T06:07:48.905Z,23.75
2023-01-02T06:10:17.298Z,26.75
2023-01-02T06:12:45.567Z,19.25
2023-01-02T06:15:13.849Z,26.25
2023-01-02T06:17:42.235Z,24.25
2023-01-02T06:20:11.089Z,21.75
2023-01-02T06:22:39.390Z,22.75
2023-01-02T06:25:08.124Z,23.00
2023-01-02T06:27:37.087Z,23.25
2023-01-02T06:30:05.859Z,22.75
2023-01-02T06:32:34.184Z,26.50
2023-01-02T06:35:05.255Z,24.75
2023-01-02T06:37:33.559Z,24.50
2023-01-02T06:40:01.864Z,20.75
2023-01-02T06:42:30.148Z,26.50
2023-01-02T06:44:58.500Z,26.00
2023-01-02T06:47:26.784Z,26.00
2023-01-02T06:49:55.048Z,28.00
2023-01-02T06:52:23.443Z,25.75
2023-01-02T06:54:51.755Z,29.50
2023-01-02T06:57:20.033Z,24.75
2023-01-02T06:59:48.370Z,24.75
2023-01-02T07:02:16.942Z,27.25
2023-01-02T07:04:45.316Z,29.75
2023-01-02T07:07:13.598Z,30.00
2023-01-02T07:09:41.882Z,27.50
2023-01-02T07:12:10.232Z,25.50
2023-01-02T07:14:38.528Z,23.25
2023-01-02T07:17:06.811Z,28.75
2023-01-02T07:19:35.190Z,22.25
2023-01-02T07:22:03.460Z,30.00
2023-01-02T07:24:31.848Z,25.75
2023-01-02T07:27:00.118Z,22.25
2023-01-02T07:29:28.551Z,22.25
2023-01-02T07:31:56.964Z,23.00
2023-01-02T07:34:25.293Z,21.50
2023-01-02T07:36:53.597Z,20.75
2023-01-02T07:39:23.159Z,22.00
2023-01-02T07:41:51.477Z,23.00
2023-01-02T07:44:19.820Z,22.75
2023-01-02T07:46:48.129Z,25.00
2023-01-02T07:49:16.495Z,26.25
2023-01-02T07:51:44.773Z,27.50
2023-01-02T07:54:13.112Z,29.75
2023-01-02T07:56:41.412Z,26.25
2023-01-02T07:59:09.893Z,27.50
2023-01-02T08:01:38.294Z,28.25
2023-01-02T08:04:06.708Z,29.25
2023-01-02T08:06:35.271Z,26.25
2023-01-02T08:09:03.565Z,24.25
2023-01-02T08:11:31.962Z,17.75
2023-01-02T08:14:00.346Z,19.75
2023-01-02T08:16:29.106Z,19.50
2023-01-02T08:19:00.865Z,18.75
2023-01-02T08:21:29.386Z,17.00
2023-01-02T08:23:59.624Z,19.50
2023-01-02T08:26:27.969Z,18.75
2023-01-02T08:28:56.277Z,17.00
2023-01-02T08:31:24.924Z,19.25
2023-01-02T08:33:53.547Z,16.25
2023-01-02T08:36:22.304Z,13.25
2023-01-02T08:38:50.855Z,14.00
2023-01-02T08:41:36.209Z,14.00
2023-01-02T08:44:04.878Z,13.50
2023-01-02T08:46:40.070Z,15.75
2023-01-02T08:49:10.542Z,13.50
2023-01-02T08:51:38.976Z,16.75
2023-01-02T08:54:07.411Z,18.50
2023-01-02T08:56:36.914Z,19.00
2023-01-02T08:59:08.244Z,15.25
2023-01-02T09:01:37.786Z,17.25
2023-01-02T09:04:11.917Z,16.75
2023-01-02T09:06:41.842Z,15.50
2023-01-02T09:09:12.399Z,14.25
2023-01-02T09:11:51.608Z,17.25
2023-01-02T09:14:22.298Z,15.50
2023-01-02T09:16:55.873Z,16.00
2023-01-02T09:19:24.133Z,19.00
2023-01-02T09:21:52.504Z,16.25
2023-01-02T09:24:20.821Z,14.00
2023-01-02T09:26:49.256Z,13.50
2023-01-02T09:29:17.651Z,12.00
2023-01-02T09:31:46.012Z,13.50
2023-01-02T09:34:14.728Z,16.25
2023-01-02T09:36:44.102Z,13.00
2023-01-02T09:39:13.616Z,14.00
2023-01-02T09:41:54.283Z,15.50
2023-01-02T09:44:41.208Z,17.50
2023-01-02T09:47:13.557Z,12.75
2023-01-02T09:49:51.301Z,15.25
2023-01-02T09:52:45.403Z,14.75
2023-01-02T09:56:00.341Z,19.50
2023-01-02T09:58:34.467Z,16.50
2023-01-02T10:01:04.008Z,19.00
2023-01-02T10:04:01.671Z,17.50
2023-01-02T10:06:55.874Z,17.00
2023-01-02T10:09:43.345Z,13.50
2023-01-02T10:12:47.162Z,15.75
2023-01-02T10:15:21.273Z,15.75
2023-01-02T10:17:53.556Z,15.00
2023-01-02T10:20:29.085Z,16.50
2023-01-02T10:23:17.331Z,15.50
2023-01-02T10:25:57.562Z,14.00
2023-01-02T10:28:26.272Z,15.50
2023-01-02T10:31:07.019Z,13.25
2023-01-02T10:34:02.774Z,37.75
2023-01-02T10:36:41.017Z,28.50
2023-01-02T10:39:21.043Z,32.25
2023-01-02T10:41:55.137Z,26.25
2023-01-02T10:44:38.693Z,28.75
2023-01-02T10:47:23.924Z,33.50
2023-01-02T10:49:57.251Z,27.50
2023-01-02T10:52:49.959Z,42.75
2023-01-02T10:55:39.333Z,36.75
2023-01-02T10:58:29.526Z,34.75
2023-01-02T11:01:20.779Z,31.25
2023-01-02T11:03:55.532Z,38.75
2023-01-02T11:06:38.976Z,34.75
2023-01-02T11:09:21.720Z,33.50
2023-01-02T11:11:56.312Z,28.25
2023-01-02T11:14:32.219Z,26.25
2023-01-02T11:17:05.810Z,23.75
2023-01-02T11:19:51.930Z,26.00
2023-01-02T11:22:34.334Z,22.50
2023-01-02T11:25:14.438Z,24.75
2023-01-02T11:27:45.697Z,19.00
2023-01-02T11:30:39.879Z,21.75
2023-01-02T11:33:20.482Z,19.50
2023-01-02T11:35:58.072Z,20.75
2023-01-02T11:38:41.148Z,25.25
2023-01-02T11:41:23.481Z,23.00
2023-01-02T11:43:58.422Z,20.50
2023-01-02T11:46:39.330Z,18.75
2023-01-02T11:49:29.717Z,25.25
2023-01-02T11:52:04.250Z,21.50
2023-01-02T11:54:45.395Z,22.50
2023-01-02T11:57:20.369Z,21.50
2023-01-02T11:59:51.476Z,18.75
2023-01-02T12:02:31.358Z,19.50
2023-01-02T12:04:59.714Z,21.00
2023-01-02T12:07:46.919Z,23.50
2023-01-02T12:10:28.387Z,21.25
2023-01-02T12:13:18.161Z,21.00
2023-01-02T12:16:08.080Z,18.00
2023-01-02T12:19:09.790Z,20.00
2023-01-02T12:21:47.051Z,24.00
2023-01-02T12:24:45.709Z,24.25
2023-01-02T12:27:33.354Z,20.75
2023-01-02T12:30:35.067Z,26.00
2023-01-02T12:33:29.217Z,20.75
2023-01-02T12:36:25.458Z,20.50
2023-01-02T12:39:12.942Z,22.25
2023-01-02T12:42:27.347Z,19.00
2023-01-02T12:45:00.357Z,17.75
2023-01-02T12:48:12.943Z,21.50
2023-01-02T12:51:08.414Z,23.75
2023-01-02T12:53:48.513Z,20.50
2023-01-02T12:56:55.336Z,23.50
2023-01-02T12:59:50.411Z,21.75
2023-01-02T13:02:49.642Z,19.50
2023-01-02T13:05:36.389Z,18.25
2023-01-02T13:08:23.588Z,17.25
2023-01-02T13:10:52.613Z,18.50
2023-01-02T13:13:26.601Z,19.75
2023-01-02T13:16:03.781Z,21.75
2023-01-02T13:19:00.551Z,21.75
2023-01-02T13:21:42.626Z,20.25
2023-01-02T13:24:17.196Z,22.75
2023-01-02T13:26:45.702Z,21.75
2023-01-02T13:29:14.014Z,22.00
2023-01-02T13:31:49.104Z,24.50
2023-01-02T13:34:29.561Z,17.75
2023-01-02T13:37:14.535Z,20.00
2023-01-02T13:39:42.783Z,28.00
2023-01-02T13:42:42.432Z,24.50
2023-01-02T13:46:05.262Z,26.75
2023-01-02T13:48:41.012Z,29.50
2023-01-02T13:51:22.135Z,23.75
2023-01-02T13:53:53.134Z,22.50
2023-01-02T13:56:22.727Z,26.25
2023-01-02T13:59:02.647Z,24.25
2023-01-02T14:02:04.295Z,22.25
2023-01-02T14:04:36.145Z,31.50
2023-01-02T14:07:26.005Z,31.25
2023-01-02T14:10:12.204Z,34.00
2023-01-02T14:12:53.623Z,26.25
2023-01-02T14:15:26.206Z,29.00
2023-01-02T14:18:06.140Z,26.50
2023-01-02T14:20:43.999Z,29.50
2023-01-02T14:23:28.453Z,23.00
2023-01-02T14:25:57.750Z,22.50
2023-01-02T14:28:31.419Z,24.25
2023-01-02T14:31:02.833Z,21.00
2023-01-02T14:33:35.951Z,23.75
2023-01-02T14:36:09.885Z,23.00
2023-01-02T14:38:58.462Z,21.00
2023-01-02T14:42:10.021Z,25.25
2023-01-02T14:44:49.030Z,23.25
2023-01-02T14:47:24.290Z,24.25
2023-01-02T14:49:59.283Z,29.75
2023-01-02T14:52:34.846Z,27.75
2023-01-02T14:55:21.207Z,24.75
2023-01-02T14:57:52.144Z,24.75
2023-01-02T15:00:35.575Z,21.25
2023-01-02T15:03:32.994Z,22.25
2023-01-02T15:06:09.510Z,24.50
2023-01-02T15:08:48.652Z,27.00
2023-01-02T15:11:41.842Z,23.75
2023-01-02T15:14:23.592Z,27.00
2023-01-02T15:17:01.629Z,21.25
2023-01-02T15:19:36.102Z,21.25
2023-01-02T15:22:18.149Z,21.75
2023-01-02T15:24:51.795Z,21.50
2023-01-02T15:27:28.667Z,26.25
2023-01-02T15:30:03.001Z,19.25
2023-01-02T15:32:34.448Z,21.25
2023-01-02T15:35:14.404Z,26.00
2023-01-02T15:37:44.977Z,19.75
2023-01-02T15:40:33.011Z,18.25
2023-01-02T15:43:32.518Z,22.00
2023-01-02T15:46:01.165Z,18.25
2023-01-02T15:48:30.586Z,20.00
2023-01-02T15:51:00.849Z,20.00
2023-01-02T15:53:53.650Z,21.75
2023-01-02T15:56:39.696Z,19.75
2023-01-02T15:59:37.968Z,18.75
2023-01-02T16:02:08.364Z,20.75
2023-01-02T16:04:36.949Z,23.00
2023-01-02T16:07:27.611Z,16.25
2023-01-02T16:09:57.541Z,21.25
2023-01-02T16:12:26.132Z,18.00
2023-01-02T16:14:58.190Z,18.50
2023-01-02T16:17:36.031Z,18.75
2023-01-02T16:20:15.641Z,22.25
2023-01-02T16:23:08.242Z,21.75
2023-01-02T16:25:44.287Z,24.50
2023-01-02T16:28:35.191Z,18.50
2023-01-02T16:31:09.961Z,23.25
2023-01-02T16:33:39.212Z,18.25
2023-01-02T16:36:09.287Z,20.00
2023-01-02T16:38:55.492Z,19.00
2023-01-02T16:41:36.124Z,19.25
2023-01-02T16:44:13.820Z,18.25
2023-01-02T16:46:44.106Z,20.25
2023-01-02T16:49:17.931Z,19.75
2023-01-02T16:51:49.610Z,18.25
2023-01-02T16:54:20.462Z,19.25
2023-01-02T16:56:49.953Z,22.75
2023-01-02T16:59:18.259Z,22.25
2023-01-02T17:01:46.569Z,20.50
2023-01-02T17:04:16.415Z,21.25
2023-01-02T17:06:44.696Z,22.00
2023-01-02T17:09:13.037Z,22.50
2023-01-02T17:12:00.891Z,21.00
2023-01-02T17:14:34.502Z,19.75
2023-01-02T17:17:02.871Z,17.00
2023-01-02T17:19:31.730Z,18.25
2023-01-02T17:22:00.059Z,19.75
2023-01-02T17:24:28.393Z,24.25
2023-01-02T17:26:56.721Z,21.75
2023-01-02T17:29:25.040Z,23.25
2023-01-02T17:31:53.359Z,24.50
2023-01-02T17:34:21.721Z,24.25
2023-01-02T17:36:50.084Z,20.25
2023-01-02T17:39:18.409Z,25.50
2023-01-02T17:41:46.761Z,19.50
2023-01-02T17:44:15.056Z,24.25
2023-01-02T17:49:31.602Z,27.50
2023-01-02T17:51:59.907Z,20.75
2023-01-02T17:54:28.201Z,22.25
2023-01-02T17:56:56.576Z,23.25
2023-01-02T17:59:25.422Z,24.00
2023-01-02T18:01:55.127Z,24.25
2023-01-02T18:04:23.560Z,28.00
2023-01-02T18:06:51.837Z,22.75
2023-01-02T18:09:20.167Z,24.00
2023-01-02T18:11:48.468Z,23.75
2023-01-02T18:14:23.306Z,26.25
2023-01-02T18:16:52.543Z,19.50
2023-01-02T18:19:26.425Z,24.00
2023-01-02T18:21:55.293Z,21.00
2023-01-02T18:24:33.010Z,23.25
2023-01-02T18:27:12.346Z,27.25
2023-01-02T18:29:42.240Z,23.50
2023-01-02T18:32:19.281Z,27.00
2023-01-02T18:34:48.921Z,28.50
2023-01-02T18:37:28.668Z,23.75
2023-01-02T18:39:58.687Z,23.25
2023-01-02T18:42:29.775Z,25.00
2023-01-02T18:45:00.938Z,25.75
2023-01-02T18:47:35.429Z,18.25
2023-01-02T18:50:40.663Z,22.75
2023-01-02T18:53:23.833Z,21.50
2023-01-02T18:55:56.693Z,27.50
2023-01-02T18:58:44.832Z,21.75
2023-01-02T19:01:29.321Z,24.75
2023-01-02T19:04:27.129Z,28.00
2023-01-02T19:06:58.823Z,28.50
2023-01-02T19:09:36.843Z,22.50
2023-01-02T19:12:43.018Z,24.50
2023-01-02T19:15:44.551Z,24.50
2023-01-02T19:18:15.589Z,22.75
2023-01-02T19:20:46.443Z,25.50
2023-01-02T19:23:44.880Z,22.75
2023-01-02T19:26:28.810Z,22.75
2023-01-02T19:29:04.997Z,23.75
2023-01-02T19:31:47.044Z,23.50
2023-01-02T19:34:51.102Z,27.50
2023-01-02T19:37:41.229Z,24.25
2023-01-02T19:40:19.527Z,23.00
2023-01-02T19:42:54.291Z,27.00
2023-01-02T19:45:25.184Z,25.00
2023-01-02T19:47:54.924Z,23.25
2023-01-02T19:50:25.855Z,30.00
2023-01-02T19:52:55.173Z,24.25
2023-01-02T19:55:23.499Z,27.25
2023-01-02T19:57:51.806Z,26.00
2023-01-02T20:00:20.571Z,26.25
2023-01-02T20:02:51.523Z,26.25
2023-01-02T20:05:22.587Z,26.50
2023-01-02T20:07:53.000Z,23.25
2023-01-02T20:10:22.710Z,23.50
2023-01-02T20:12:51.238Z,22.75
2023-01-02T20:15:24.207Z,27.00
2023-01-02T20:17:53.979Z,27.00
2023-01-02T20:20:25.108Z,26.25
2023-01-02T20:22:53.770Z,25.75
2023-01-02T20:25:25.502Z,24.00
2023-01-02T20:27:56.760Z,21.75
2023-01-02T20:30:26.285Z,24.75
2023-01-02T20:32:55.573Z,20.50
2023-01-02T20:35:24.087Z,22.50
2023-01-02T20:37:52.638Z,21.25
2023-01-02T20:40:20.954Z,18.50
2023-01-02T20:42:49.222Z,21.00
2023-01-02T20:45:17.565Z,22.75
2023-01-02T20:47:45.886Z,24.50
2023-01-02T20:50:14.197Z,25.00
2023-01-02T20:52:42.503Z,22.00
2023-01-02T20:55:11.639Z,22.00
2023-01-02T20:57:39.929Z,22.75
2023-01-02T21:00:11.885Z,23.25
2023-01-02T21:02:40.362Z,23.25
2023-01-02T21:05:09.077Z,22.75
2023-01-02T21:07:37.366Z,25.25
2023-01-02T21:10:06.031Z,26.50
2023-01-02T21:12:52.644Z,23.50
2023-01-02T21:15:39.314Z,20.75
2023-01-02T21:18:07.626Z,22.00
2023-01-02T21:20:38.823Z,23.50
2023-01-02T21:23:11.372Z,19.50
2023-01-02T21:25:40.435Z,20.25
2023-01-02T21:28:09.822Z,22.75
2023-01-02T21:30:38.097Z,22.75
2023-01-02T21:33:06.461Z,21.00
2023-01-02T21:35:36.226Z,21.00
2023-01-02T21:38:04.899Z,19.25
2023-01-02T21:40:33.192Z,19.25
2023-01-02T21:43:01.674Z,21.75
2023-01-02T21:45:29.972Z,20.75
2023-01-02T21:47:58.456Z,21.00
2023-01-02T21:50:27.540Z,20.00
2023-01-02T21:52:56.233Z,25.75
2023-01-02T21:55:25.229Z,22.75
2023-01-02T21:58:15.204Z,18.75
2023-01-02T22:00:44.150Z,19.25
2023-01-02T22:03:12.729Z,18.00
2023-01-02T22:05:41.411Z,21.75
2023-01-02T22:08:09.953Z,20.25
2023-01-02T22:10:38.636Z,18.75
2023-01-02T22:13:06.992Z,19.00
2023-01-02T22:15:35.297Z,18.25
2023-01-02T22:18:03.644Z,20.50
2023-01-02T22:20:32.002Z,22.25
2023-01-02T22:23:00.353Z,20.50
2023-01-02T22:25:29.061Z,17.25
2023-01-02T22:27:57.478Z,20.00
2023-01-02T22:30:33.377Z,19.75
2023-01-02T22:33:02.470Z,21.75
2023-01-02T22:35:30.962Z,19.25
2023-01-02T22:38:00.311Z,20.25
2023-01-02T22:40:30.019Z,17.25
2023-01-02T22:43:02.160Z,22.50
2023-01-02T22:45:46.826Z,17.75
2023-01-02T22:48:24.981Z,23.00
2023-01-02T22:50:56.455Z,16.50
2023-01-02T22:53:30.488Z,18.75
2023-01-02T22:55:59.457Z,19.25
2023-01-02T22:58:27.934Z,22.75
2023-01-02T23:01:04.153Z,21.25
2023-01-02T23:03:40.097Z,18.50
2023-01-02T23:06:08.650Z,23.00
2023-01-02T23:08:36.996Z,23.00
2023-01-02T23:11:07.467Z,20.00
2023-01-02T23:13:37.151Z,19.00
2023-01-02T23:16:24.362Z,20.25
2023-01-02T23:19:11.073Z,22.75
2023-01-02T23:21:40.305Z,18.75
2023-01-02T23:24:09.267Z,21.50
2023-01-02T23:26:42.322Z,16.00
2023-01-02T23:29:12.246Z,17.50
2023-01-02T23:31:43.530Z,20.00
2023-01-02T23:34:14.226Z,22.25
2023-01-02T23:36:43.533Z,21.25
2023-01-02T23:39:17.875Z,22.00
2023-01-02T23:41:46.930Z,18.25
2023-01-02T23:44:16.485Z,20.25
2023-01-02T23:46:46.345Z,16.75
2023-01-02T23:49:17.055Z,19.50
2023-01-02T23:51:45.952Z,20.50
2023-01-02T23:54:16.507Z,21.25
2023-01-02T23:56:47.992Z,22.50
2023-01-02T23:59:22.457Z,23.00
